»·PEaware :: N149CD L26-KVNY

N149CD :: L26-KVNY

FLIGHT INFORMATION

Flight Status: Arrived
Operator: Privately registered:
United States
More flights under this callsign
Pilot: Nathan E. (30132)
Aircraft: CESSNA 172 SKYHAWK
(C172)
More flights by this aircraft type
Origin: L26 Hesperia
United States
Destination: KVNY Van Nuys
United States
More flights between these airports :: More routes between these airports
Route: APLES V386 UMBER
File this flight plan on PilotEdge
Remarks:
Altitude:
(Current/Filed)
8,000ft
Speed:
(Current/Filed)
110kts
Departed: 29-Aug-20 11:54 AM
Arrived: 29-Aug-20 12:53 PM
Distance/Time
Traveled:
59nm/0:59
Distance/Time
To Go:
Arrived

Flight Plot

Page will automatically refresh every two minutes.

Flight plan parsing failed; only flown route is shown


Map Options




Map Legend


Flown Route
Filed Route
Departure Airport
Arrival Airport
Navaid (VOR, NDB)
Fix

Horizontal Profiles

Position Reports

Time Latitude Longitude Heading Altitude Ground
Speed
29-Aug-20 11:39 34.379708 -117.311989 291 3327ft 0kts
29-Aug-20 11:40 34.379708 -117.311989 291 3327ft 0kts
29-Aug-20 11:41 34.379708 -117.311989 291 3327ft 0kts
29-Aug-20 11:42 34.379708 -117.311989 291 3327ft 0kts
29-Aug-20 11:43 34.379708 -117.311989 291 3327ft 0kts
29-Aug-20 11:44 34.379708 -117.311989 291 3327ft 0kts
29-Aug-20 11:45 34.379708 -117.311989 291 3327ft 0kts
29-Aug-20 11:46 34.379708 -117.311989 291 3327ft 0kts
29-Aug-20 11:47 34.379708 -117.311989 291 3327ft 0kts
29-Aug-20 11:48 34.379708 -117.311989 291 3327ft 0kts
29-Aug-20 11:49 34.379708 -117.311989 291 3327ft 0kts
29-Aug-20 11:50 34.379708 -117.311989 291 3327ft 0kts
29-Aug-20 11:51 34.379899 -117.312127 358 3328ft 6kts
29-Aug-20 11:52 34.380928 -117.312081 280 3330ft 2kts
29-Aug-20 11:54 34.373582 -117.319059 219 3488ft 69kts
29-Aug-20 11:55 34.358045 -117.334183 221 4145ft 75kts
29-Aug-20 11:56 34.361050 -117.351059 5 4822ft 85kts
29-Aug-20 11:57 34.380469 -117.333352 40 5487ft 88kts
29-Aug-20 11:58 34.399037 -117.313348 41 6121ft 89kts
29-Aug-20 11:59 34.417732 -117.292998 41 6718ft 91kts
29-Aug-20 12:00 34.436602 -117.272380 42 7280ft 92kts
29-Aug-20 12:01 34.455654 -117.251540 42 7811ft 93kts
29-Aug-20 12:02 34.477213 -117.228003 42 8004ft 119kts
29-Aug-20 12:03 34.501755 -117.200968 42 8004ft 120kts
29-Aug-20 12:04 34.526520 -117.173710 42 8008ft 120kts
29-Aug-20 12:05 34.553623 -117.164559 298 8014ft 111kts
29-Aug-20 12:06 34.555205 -117.200696 268 8017ft 108kts
29-Aug-20 12:07 34.557262 -117.237363 271 8017ft 109kts
29-Aug-20 12:08 34.560293 -117.274007 272 8018ft 109kts
29-Aug-20 12:09 34.563616 -117.310833 272 8018ft 109kts
29-Aug-20 12:09 34.566460 -117.341713 272 8018ft 109kts
29-Aug-20 12:10 34.569854 -117.378427 272 8018ft 109kts
29-Aug-20 12:12 34.573820 -117.421362 272 8018ft 109kts
29-Aug-20 12:13 34.577213 -117.458219 272 8018ft 109kts
29-Aug-20 12:13 34.580081 -117.489456 272 8018ft 109kts
29-Aug-20 12:14 34.583618 -117.528109 272 8018ft 109kts
29-Aug-20 12:16 34.587704 -117.572919 272 8018ft 109kts
29-Aug-20 12:16 34.590552 -117.604275 272 8017ft 109kts
29-Aug-20 12:17 34.593868 -117.640910 272 8015ft 108kts
29-Aug-20 12:18 34.597145 -117.677215 272 8013ft 107kts
29-Aug-20 12:19 34.600399 -117.713377 273 8010ft 107kts
29-Aug-20 12:20 34.603600 -117.749078 273 8007ft 106kts
29-Aug-20 12:21 34.606771 -117.784569 273 8003ft 105kts
29-Aug-20 12:22 34.609922 -117.819929 274 8000ft 105kts
29-Aug-20 12:23 34.613037 -117.854990 274 7997ft 104kts
29-Aug-20 12:24 34.616150 -117.890177 274 7999ft 104kts
29-Aug-20 12:25 34.619245 -117.925268 274 8000ft 104kts
29-Aug-20 12:26 34.622328 -117.960348 274 8001ft 104kts
29-Aug-20 12:27 34.625398 -117.995396 274 8003ft 104kts
29-Aug-20 12:28 34.628462 -118.030497 275 8005ft 104kts
29-Aug-20 12:29 34.629331 -118.065473 253 8008ft 104kts
29-Aug-20 12:30 34.619410 -118.098556 249 8008ft 104kts
29-Aug-20 12:31 34.608751 -118.131551 249 8005ft 105kts
29-Aug-20 12:32 34.597925 -118.164461 248 8002ft 105kts
29-Aug-20 12:33 34.587022 -118.197295 248 8000ft 105kts
29-Aug-20 12:34 34.576068 -118.230173 248 7997ft 105kts
29-Aug-20 12:35 34.565149 -118.262908 248 7995ft 104kts
29-Aug-20 12:36 34.554197 -118.295703 248 7992ft 104kts
29-Aug-20 12:37 34.543247 -118.328462 248 7991ft 104kts
29-Aug-20 12:38 34.532290 -118.361204 248 7991ft 104kts
29-Aug-20 12:39 34.520616 -118.394538 243 7785ft 118kts
29-Aug-20 12:40 34.502999 -118.428431 249 7277ft 122kts
29-Aug-20 12:41 34.492971 -118.467478 249 6776ft 121kts
29-Aug-20 12:42 34.481506 -118.505936 219 6271ft 119kts
29-Aug-20 12:43 34.450379 -118.512091 175 5775ft 116kts
29-Aug-20 12:44 34.418638 -118.510043 174 5275ft 114kts
29-Aug-20 12:45 34.386751 -118.507113 173 4721ft 118kts
29-Aug-20 12:46 34.353044 -118.503956 173 4004ft 124kts
29-Aug-20 12:47 34.318277 -118.500657 173 3213ft 126kts
29-Aug-20 12:48 34.283159 -118.497330 174 2404ft 124kts
29-Aug-20 12:49 34.252779 -118.494458 174 1710ft 90kts
29-Aug-20 12:50 34.231372 -118.492409 173 1230ft 71kts
29-Aug-20 12:51 34.212521 -118.490630 174 806ft 44kts
29-Aug-20 12:52 34.210051 -118.491491 205 806ft 8kts
29-Aug-20 12:53 34.206572 -118.492424 270 806ft 10kts
29-Aug-20 12:54 34.206376 -118.492630 358 806ft 0kts

Navigation Log

Ident Type
Flight plan parsing failed, navigation log unavailable